Brilliance Of The Seas — C6SJ5 — position and weather

sailwx.info

Track history (hours):
 
Tides and Currents Weather Stations Pressure Air Temp Water Temp Dewpoint Dewpoint Depression Visibility Wind Speed Wind Dir Waves Ship Positions

Brilliance Of The Seas

Operator: Royal Caribbean Cruises Ltd

Last reported at 2019-Oct-23 00:00 UTC. Time now 2019-Oct-23 00:28 UTC.
Position N 43°35' E 009°44'.

Type: Passenger vessel. MMSI: 311361000.

Date/timePositionNaut miles runAvg speedWind from/ knotsBaromVisibWave heightAir tempDewpointWater temp
2019-Oct-23 00:00N 43°35' E 009°44'3 6.7
2019-Oct-22 23:30N 43°35' E 009°39'4 7.4
2019-Oct-22 23:00N 43°34' E 009°34'5344.8
2019-Oct-22 23:00N 43°30' E 009°30'815.5 050 / 111020.510.8 21.021.022.0
2019-Oct-22 22:30N 43°37' E 009°34'4 7.8
2019-Oct-22 22:00N 43°41' E 009°36'3 6.3
2019-Oct-22 21:30N 43°42' E 009°31'4 7.4
2019-Oct-22 21:00N 43°41' E 009°26'3 6.9
2019-Oct-22 20:30N 43°43' E 009°23'4 7.4
2019-Oct-22 20:00N 43°46' E 009°22'5359.6
2019-Oct-22 20:00N 43°42' E 009°18'817.3 060 / 151020.510.8 21.0
2019-Oct-22 19:31N 43°50' E 009°21'4 7.3
2019-Oct-22 19:00N 43°53' E 009°18'4 7.6
2019-Oct-22 18:30N 43°56' E 009°15'4 7.5
2019-Oct-22 18:00N 43°59' E 009°12'5 9.8
2019-Oct-22 17:30N 44°04' E 009°12'713.5
2019-Oct-22 17:00N 44°11' E 009°14'11946.9
2019-Oct-22 17:00N 44°00' E 009°12'1836.1 020 / 81020.5 24.0
2019-Oct-22 16:30N 44°18' E 009°14'1 1.7
2019-Oct-22 16:00N 44°18' E 009°14'0 0.1
2019-Oct-22 15:23N 44°18' E 009°14'0 0.0
2019-Oct-22 14:56N 44°18' E 009°14'0 0.0
2019-Oct-22 14:29N 44°18' E 009°14'0 0.0
2019-Oct-22 13:50N 44°18' E 009°14'0 0.0
2019-Oct-22 13:29N 44°18' E 009°14'0 0.0
2019-Oct-22 12:47N 44°18' E 009°14'0 0.0
2019-Oct-22 12:29N 44°18' E 009°14'0 0.1
2019-Oct-22 11:56N 44°18' E 009°14'0 0.0
2019-Oct-22 11:29N 44°18' E 009°14'0 0.0
2019-Oct-22 10:56N 44°18' E 009°14'0 0.0
2019-Oct-22 10:23N 44°18' E 009°14'0 0.0
2019-Oct-22 09:53N 44°18' E 009°14'0 0.0
2019-Oct-22 09:08N 44°18' E 009°14'0 0.0
2019-Oct-22 08:53N 44°18' E 009°14'0 0.0
2019-Oct-22 08:23N 44°18' E 009°14'0 0.0
2019-Oct-22 07:59N 44°18' E 009°14'0 0.0
2019-Oct-22 07:30N 44°18' E 009°14'0 0.0
2019-Oct-22 07:00N 44°18' E 009°14'0 0.0
2019-Oct-22 06:30N 44°18' E 009°14'0 0.0
2019-Oct-22 06:00N 44°18' E 009°14'0 0.0
2019-Oct-22 05:29N 44°18' E 009°14'0 0.2
2019-Oct-22 05:00N 44°18' E 009°14'3 6.4
2019-Oct-22 04:30N 44°16' E 009°11'4 7.8
2019-Oct-22 04:00N 44°13' E 009°07'4 8.0
2019-Oct-22 03:30N 44°11' E 009°03'4 7.9
2019-Oct-22 03:00N 44°08' E 008°58'4 8.3
2019-Oct-22 02:30N 44°06' E 008°54'4 8.5
2019-Oct-22 02:00N 44°03' E 008°50'4 8.6
2019-Oct-22 01:30N 43°60' E 008°45'4 8.6
2019-Oct-22 01:00N 43°57' E 008°41'4 8.6
2019-Oct-22 00:30N 43°54' E 008°36'4 8.7
2019-Oct-22 00:00N 43°51' E 008°32'5 8.7
2019-Oct-21 23:29N 43°48' E 008°27'4 8.7
2019-Oct-21 23:00N 43°46' E 008°22'5324.7
2019-Oct-21 23:00N 43°42' E 008°18'3 6.0 070 / 81021.510.8 20.020.023.0
2019-Oct-21 22:30N 43°45' E 008°17'6 8.6
2019-Oct-21 21:49N 43°44' E 008°09'3 8.5
2019-Oct-21 21:30N 43°43' E 008°05'4 8.7
2019-Oct-21 21:00N 43°43' E 007°59'4236.5
2019-Oct-21 21:00N 43°42' E 007°54'1 1.4 360 / 91020.510.8 20.0
2019-Oct-21 20:30N 43°42' E 007°53'4 8.7
2019-Oct-21 20:00N 43°41' E 007°47'4 8.5
2019-Oct-21 19:30N 43°40' E 007°41'4 8.5
2019-Oct-21 19:00N 43°40' E 007°35'4248.9
2019-Oct-21 19:00N 43°36' E 007°36'611.2 360 / 71020.510.8 20.0
2019-Oct-21 18:30N 43°39' E 007°30'4 8.4
2019-Oct-21 18:00N 43°39' E 007°24'5340.4
2019-Oct-21 18:00N 43°36' E 007°18'4 8.6 360 / 71020.510.8 21.0
2019-Oct-21 17:30N 43°40' E 007°19'1 2.4
2019-Oct-21 17:00N 43°41' E 007°19'0 0.1
2019-Oct-21 16:30N 43°41' E 007°19'0 0.0
2019-Oct-21 16:00N 43°41' E 007°19'0 0.0
2019-Oct-21 15:27N 43°41' E 007°19'0 0.1
2019-Oct-21 15:00N 43°41' E 007°19'0 0.0
2019-Oct-21 14:30N 43°41' E 007°19'0 0.0
2019-Oct-21 14:00N 43°41' E 007°19'0 0.1
2019-Oct-21 13:30N 43°41' E 007°19'0 0.1
2019-Oct-21 13:00N 43°41' E 007°19'0 0.0
2019-Oct-21 12:27N 43°41' E 007°19'0 0.0
2019-Oct-21 12:00N 43°41' E 007°19'0 0.0
2019-Oct-21 11:24N 43°41' E 007°19'0 0.0
2019-Oct-21 11:00N 43°41' E 007°19'0 0.0
2019-Oct-21 10:30N 43°41' E 007°19'0 0.1
2019-Oct-21 09:57N 43°41' E 007°19'0 0.1
2019-Oct-21 09:27N 43°41' E 007°19'0 0.0
2019-Oct-21 09:00N 43°41' E 007°19'0 0.0
2019-Oct-21 08:30N 43°41' E 007°19'0 0.1
2019-Oct-21 08:00N 43°41' E 007°19'5343.1
2019-Oct-21 08:00N 43°36' E 007°18'511.0 010 / 21021.5 5.4 20.020.023.0
2019-Oct-21 07:30N 43°41' E 007°19'0 0.1
2019-Oct-21 06:57N 43°41' E 007°19'0 0.1
2019-Oct-21 06:30N 43°41' E 007°19'2 4.8
2019-Oct-21 06:01N 43°39' E 007°17'816.0
2019-Oct-21 05:30N 43°33' E 007°11'918.3
2019-Oct-21 05:00N 43°26' E 007°03'918.3
2019-Oct-21 04:30N 43°19' E 006°54'918.6
2019-Oct-21 04:00N 43°12' E 006°46'2112.9
2019-Oct-21 04:00N 43°12' E 006°48'1021.2 040 / 111017.5 5.4 20.020.022.0
2019-Oct-21 03:30N 43°05' E 006°37'6819.3
2019-Oct-21 00:00N 42°24' E 005°24'8421.0 160 / 111018.5 5.4 19.019.022.0
2019-Oct-20 20:00N 41°48' E 003°42'2323.1 180 / 251010.510.8 21.0
2019-Oct-20 19:00N 41°54' E 003°12'2619.9 190 / 211010.510.8 21.0
2019-Oct-20 17:40N 41°32' E 002°53'422.0
2019-Oct-20 17:29N 41°30' E 002°49'1021.8
2019-Oct-20 17:00N 41°25' E 002°36'1121.5
2019-Oct-20 16:30N 41°20' E 002°24'1020.2
2019-Oct-20 16:00N 41°16' E 002°11'4264.4
2019-Oct-20 16:00N 41°12' E 002°12'919.3 190 / 211010.510.8 21.0
2019-Oct-20 15:30N 41°21' E 002°10'0 0.9
2019-Oct-20 15:00N 41°22' E 002°11'0 0.0
2019-Oct-20 14:30N 41°22' E 002°11'0 0.0
2019-Oct-20 14:00N 41°22' E 002°11'0 0.0
2019-Oct-20 13:30N 41°22' E 002°11'0 0.0
2019-Oct-20 13:00N 41°22' E 002°11'0 0.0
2019-Oct-20 12:30N 41°22' E 002°11'0 0.0
2019-Oct-20 12:00N 41°22' E 002°11'0 0.0
2019-Oct-20 11:30N 41°22' E 002°11'0 0.0
2019-Oct-20 11:00N 41°22' E 002°11'0 0.0
2019-Oct-20 10:30N 41°22' E 002°11'0 0.0
2019-Oct-20 10:00N 41°22' E 002°11'0 0.0
2019-Oct-20 09:30N 41°22' E 002°11'0 0.0
2019-Oct-20 09:00N 41°22' E 002°11'0 0.0
2019-Oct-20 08:30N 41°22' E 002°11'0 0.0
2019-Oct-20 08:00N 41°22' E 002°11'0 0.0
2019-Oct-20 07:30N 41°22' E 002°11'0 0.0
2019-Oct-20 07:00N 41°22' E 002°11'0 0.0
2019-Oct-20 06:30N 41°22' E 002°11'0 0.0
2019-Oct-20 06:00N 41°22' E 002°11'0 0.0
2019-Oct-20 05:30N 41°22' E 002°11'0 0.0
2019-Oct-20 05:00N 41°22' E 002°11'0 0.0
2019-Oct-20 04:30N 41°22' E 002°11'0 0.0
2019-Oct-20 04:00N 41°22' E 002°11'1 2.2
2019-Oct-20 03:31N 41°21' E 002°10'3 6.9
2019-Oct-20 03:00N 41°17' E 002°11'815.2
2019-Oct-20 02:30N 41°18' E 002°21'816.0
2019-Oct-20 02:01N 41°17' E 002°32'816.4
2019-Oct-20 01:30N 41°16' E 002°43'916.7
2019-Oct-20 00:57N 41°16' E 002°55'13516.9
2019-Oct-19 17:00N 41°12' E 005°54'8817.8 170 / 291013.510.8 21.0
2019-Oct-19 12:03N 41°17' E 007°51'217.6
2019-Oct-19 11:56N 41°17' E 007°54'717.3
2019-Oct-19 11:30N 41°17' E 008°04'611.5
2019-Oct-19 11:00N 41°12' E 008°00'2533.0 180 / 221020.510.8 21.0
2019-Oct-19 10:13N 41°17' E 008°33'624.5
2019-Oct-19 10:00N 41°12' E 008°30'15018.8 170 / 131017.510.8 21.021.023.0
2019-Oct-19 02:00N 40°54' E 011°48'9416.0 170 / 101018.510.8 20.020.023.0
2019-Oct-18 20:06N 40°31' E 013°48'1 5.8
2019-Oct-18 20:00N 40°30' E 013°48'353.1 270 / 61020.510.8 21.0
2019-Oct-18 19:56N 40°30' E 013°52'2016.8
2019-Oct-18 18:45N 40°30' E 014°18'417.3
2019-Oct-18 18:30N 40°31' E 014°24'917.3
2019-Oct-18 18:00N 40°33' E 014°34'9616.7
2019-Oct-18 18:00N 40°30' E 014°24'14 1.1 220 / 21019.510.8 21.0
2019-Oct-18 05:02N 40°36' E 014°41'214.7
2019-Oct-18 04:55N 40°36' E 014°38'614.8
2019-Oct-18 04:30N 40°34' E 014°31'915.2
2019-Oct-18 03:57N 40°32' E 014°20'1114.9
2019-Oct-18 03:12N 40°31' E 014°05'315.2
2019-Oct-18 03:00N 40°33' E 014°02'815.2
2019-Oct-18 02:30N 40°37' E 013°54'815.4
2019-Oct-18 02:00N 40°41' E 013°46'6481.3
2019-Oct-18 02:00N 40°36' E 013°48'1425.4 060 / 41020.510.8 20.020.021.0
2019-Oct-18 01:27N 40°47' E 013°38'2114.1
2019-Oct-18 00:00N 40°54' E 013°12'6917.1 360 / 121021.510.8 19.019.021.0
2019-Oct-17 20:00N 41°36' E 012°00'2211.2 260 / 51020.510.8 20.0
2019-Oct-17 18:00N 41°54' E 011°42'108 4.7 240 / 91020.510.8 20.0
2019-Oct-16 18:51N 43°17' E 010°07'515.1
2019-Oct-16 18:30N 43°22' E 010°08'714.9
2019-Oct-16 18:00N 43°29' E 010°12'6408.9
2019-Oct-16 18:00N 43°24' E 010°06'1223.7 260 / 211019.510.8 19.0
2019-Oct-16 17:30N 43°32' E 010°17'1 2.4
2019-Oct-16 16:59N 43°33' E 010°18'0 0.0
2019-Oct-16 16:29N 43°33' E 010°18'0 0.0
2019-Oct-16 15:59N 43°33' E 010°18'0 0.0
2019-Oct-16 15:29N 43°33' E 010°18'0 0.0
2019-Oct-16 14:59N 43°33' E 010°18'0 0.0
2019-Oct-16 14:29N 43°33' E 010°18'0 0.0
2019-Oct-16 13:59N 43°33' E 010°18'0 0.0
2019-Oct-16 13:29N 43°33' E 010°18'0 0.0
2019-Oct-16 12:59N 43°33' E 010°18'0 0.0
2019-Oct-16 12:29N 43°33' E 010°18'0 0.0
2019-Oct-16 11:59N 43°33' E 010°18'0 0.0
2019-Oct-16 11:29N 43°33' E 010°18'0 0.0
2019-Oct-16 10:59N 43°33' E 010°18'0 0.0
2019-Oct-16 10:29N 43°33' E 010°18'0 0.0
2019-Oct-16 09:59N 43°33' E 010°18'0 0.0
2019-Oct-16 09:29N 43°33' E 010°18'0 0.0
2019-Oct-16 08:59N 43°33' E 010°18'0 0.0
2019-Oct-16 08:29N 43°33' E 010°18'0 0.0
2019-Oct-16 07:59N 43°33' E 010°18'0 0.0
2019-Oct-16 07:29N 43°33' E 010°18'0 0.0
2019-Oct-16 06:59N 43°33' E 010°18'0 0.0
2019-Oct-16 06:29N 43°33' E 010°18'0 0.0
2019-Oct-16 05:59N 43°33' E 010°18'0 0.0
2019-Oct-16 05:29N 43°33' E 010°18'0 0.0
2019-Oct-16 04:59N 43°33' E 010°18'0 0.0
2019-Oct-16 04:30N 43°33' E 010°18'1 1.8
2019-Oct-16 04:00N 43°33' E 010°17'4 7.5
2019-Oct-16 03:30N 43°30' E 010°14'5 9.8
2019-Oct-16 03:00N 43°29' E 010°07'510.2
2019-Oct-16 02:30N 43°30' E 010°00'510.1
2019-Oct-16 02:00N 43°32' E 009°54'510.3
2019-Oct-16 01:30N 43°33' E 009°47'510.4
2019-Oct-16 01:00N 43°34' E 009°40'510.5
2019-Oct-16 00:30N 43°35' E 009°33'510.4
2019-Oct-16 00:00N 43°37' E 009°26'510.5
2019-Oct-15 23:30N 43°38' E 009°19'510.5
2019-Oct-15 23:00N 43°40' E 009°12'4246.5
2019-Oct-15 23:00N 43°36' E 009°12'714.8 230 / 301013.5 5.4 20.020.020.0
2019-Oct-15 22:30N 43°41' E 009°05'510.6
2019-Oct-15 22:00N 43°42' E 008°58'510.3
2019-Oct-15 21:30N 43°45' E 008°52'4 8.7
2019-Oct-15 21:00N 43°49' E 008°53'11679.6
2019-Oct-15 21:00N 44°00' E 008°54'613.2 230 / 451019.510.8 20.0
2019-Oct-15 20:30N 43°54' E 008°54'4 8.4
2019-Oct-15 20:00N 43°58' E 008°54'4 8.0
2019-Oct-15 19:30N 44°02' E 008°55'4 7.7
2019-Oct-15 19:00N 44°06' E 008°56'7512.8
2019-Oct-15 19:00N 44°12' E 008°54'3 6.6 210 / 251010.510.8 20.0
2019-Oct-15 18:30N 44°09' E 008°56'4 7.7
2019-Oct-15 18:00N 44°13' E 008°57'4 7.5
2019-Oct-15 17:30N 44°17' E 008°57'4 7.9
2019-Oct-15 17:00N 44°21' E 008°57'4 7.4
2019-Oct-15 16:30N 44°24' E 008°55'1 1.1
2019-Oct-15 15:58N 44°25' E 008°55'0 0.0
2019-Oct-15 15:28N 44°25' E 008°55'0 0.0
2019-Oct-15 14:58N 44°25' E 008°55'0 0.0
2019-Oct-15 14:28N 44°25' E 008°55'0 0.0
2019-Oct-15 13:58N 44°25' E 008°55'0 0.0
2019-Oct-15 13:28N 44°25' E 008°55'0 0.0
2019-Oct-15 12:58N 44°25' E 008°55'0 0.0
2019-Oct-15 12:28N 44°25' E 008°55'0 0.0
2019-Oct-15 11:58N 44°25' E 008°55'0 0.0
2019-Oct-15 11:28N 44°25' E 008°55'0 0.0
2019-Oct-15 10:58N 44°25' E 008°55'0 0.0
2019-Oct-15 10:28N 44°25' E 008°55'0 0.0
2019-Oct-15 09:58N 44°25' E 008°55'0 0.0
2019-Oct-15 09:28N 44°25' E 008°55'0 0.0
2019-Oct-15 08:58N 44°25' E 008°55'0 0.0
2019-Oct-15 08:28N 44°25' E 008°55'0 0.0
2019-Oct-15 07:58N 44°25' E 008°55'0 0.0
2019-Oct-15 07:28N 44°25' E 008°55'0 0.0
2019-Oct-15 06:58N 44°25' E 008°55'0 0.0
2019-Oct-15 06:28N 44°25' E 008°55'0 0.0
2019-Oct-15 05:59N 44°25' E 008°55'1 1.2
2019-Oct-15 05:31N 44°24' E 008°55'2 3.1
2019-Oct-15 05:00N 44°23' E 008°57'3 5.8
2019-Oct-15 04:31N 44°21' E 008°59'4 7.1
2019-Oct-15 04:01N 44°17' E 008°57'4 7.7
2019-Oct-15 03:30N 44°14' E 008°54'4 8.1
2019-Oct-15 03:00N 44°11' E 008°51'4 8.4
2019-Oct-15 02:30N 44°08' E 008°47'4 8.2
2019-Oct-15 02:00N 44°05' E 008°43'2114.8
2019-Oct-15 02:00N 44°06' E 008°42'510.2 110 / 251015.5 5.4 21.021.020.0
2019-Oct-15 01:30N 44°01' E 008°39'4 8.1
2019-Oct-15 01:00N 43°58' E 008°36'4 8.3
2019-Oct-15 00:30N 43°55' E 008°32'4 8.4
2019-Oct-15 00:00N 43°52' E 008°29'4 8.4
2019-Oct-14 23:30N 43°48' E 008°25'815.9
2019-Oct-14 23:00N 43°42' E 008°18'349.5 040 / 131017.5 5.4 21.021.020.0
2019-Oct-14 22:55N 43°45' E 008°20'8 8.3
2019-Oct-14 21:57N 43°44' E 008°09'4 8.5
2019-Oct-14 21:30N 43°43' E 008°04'4 8.6
2019-Oct-14 21:00N 43°42' E 007°58'4 8.6
2019-Oct-14 20:30N 43°42' E 007°52'4 8.5
2019-Oct-14 20:01N 43°41' E 007°46'4 8.5
2019-Oct-14 19:30N 43°40' E 007°40'4 8.5
2019-Oct-14 19:00N 43°40' E 007°35'5439.3
2019-Oct-14 19:00N 43°36' E 007°30'3 6.7 060 / 241018.510.8 21.0
2019-Oct-14 18:31N 43°39' E 007°29'4 8.1
2019-Oct-14 18:00N 43°39' E 007°23'3218.7
2019-Oct-14 18:00N 43°36' E 007°24'611.6 070 / 281018.510.8 21.0
2019-Oct-14 17:31N 43°40' E 007°18'2 3.5
2019-Oct-14 17:00N 43°41' E 007°19'0 0.3
2019-Oct-14 16:26N 43°41' E 007°19'0 0.0
2019-Oct-14 15:59N 43°41' E 007°19'0 0.0
2019-Oct-14 15:29N 43°41' E 007°19'0 0.0
2019-Oct-14 14:59N 43°41' E 007°19'0 0.0
2019-Oct-14 14:29N 43°41' E 007°19'0 0.0
2019-Oct-14 13:59N 43°41' E 007°19'0 0.0
2019-Oct-14 13:29N 43°41' E 007°19'0 0.0
2019-Oct-14 12:59N 43°41' E 007°19'0 0.0
2019-Oct-14 12:26N 43°41' E 007°19'0 0.0
2019-Oct-14 11:59N 43°41' E 007°19'0 0.0
2019-Oct-14 11:29N 43°41' E 007°19'0 0.0
2019-Oct-14 10:59N 43°41' E 007°19'0 0.0
2019-Oct-14 10:26N 43°41' E 007°19'0 0.0
2019-Oct-14 09:59N 43°41' E 007°19'0 0.0
2019-Oct-14 09:29N 43°41' E 007°19'0 0.0
2019-Oct-14 08:59N 43°41' E 007°19'0 0.0
2019-Oct-14 08:26N 43°41' E 007°19'0 0.0
2019-Oct-14 07:56N 43°41' E 007°19'0 0.0
2019-Oct-14 07:26N 43°41' E 007°19'0 0.0
2019-Oct-14 06:53N 43°41' E 007°19'0 0.1
2019-Oct-14 06:30N 43°41' E 007°19'3 5.3
2019-Oct-14 06:00N 43°39' E 007°17'815.7
2019-Oct-14 05:31N 43°33' E 007°11'918.1
2019-Oct-14 05:01N 43°26' E 007°03'918.4
2019-Oct-14 04:30N 43°19' E 006°54'918.7
2019-Oct-14 04:01N 43°12' E 006°46'3919.3
2019-Oct-14 02:00N 42°42' E 006°12'3316.6 060 / 301020.5 5.4 19.019.023.0
2019-Oct-14 00:00N 42°30' E 005°30'2121.4 070 / 261020.5 5.4 21.021.023.0
2019-Oct-13 23:00N 42°18' E 005°06'4421.9 070 / 201020.5 5.4 21.021.023.0
2019-Oct-13 21:00N 42°00' E 004°12'5919.6 100 / 171020.510.8 21.0
2019-Oct-13 18:00N 41°36' E 003°00'1119.6 070 / 101019.510.8 21.0
2019-Oct-13 17:25N 41°29' E 002°48'921.8
2019-Oct-13 17:00N 41°25' E 002°37'2110.8
2019-Oct-13 17:00N 41°24' E 002°36'1019.7 090 / 161018.510.8 22.0
2019-Oct-13 16:31N 41°20' E 002°25'1019.4
2019-Oct-13 16:01N 41°16' E 002°13'4223.0
2019-Oct-13 16:00N 41°12' E 002°12'917.8 100 / 141019.5 22.0
2019-Oct-13 15:30N 41°21' E 002°10'1 2.3
2019-Oct-13 15:00N 41°22' E 002°11'0 0.1
2019-Oct-13 14:26N 41°22' E 002°11'0 0.0
2019-Oct-13 13:56N 41°22' E 002°11'0 0.0
2019-Oct-13 13:26N 41°22' E 002°11'0 0.0
2019-Oct-13 12:56N 41°22' E 002°11'0 0.0
2019-Oct-13 12:26N 41°22' E 002°11'0 0.0
2019-Oct-13 11:56N 41°22' E 002°11'0 0.0
2019-Oct-13 11:26N 41°22' E 002°11'0 0.0
2019-Oct-13 10:56N 41°22' E 002°11'0 0.0
2019-Oct-13 10:26N 41°22' E 002°11'0 0.0
2019-Oct-13 09:55N 41°22' E 002°11'0 0.0
2019-Oct-13 09:26N 41°22' E 002°11'0 0.0
2019-Oct-13 08:56N 41°22' E 002°11'0 0.0
2019-Oct-13 08:26N 41°22' E 002°11'0 0.0
2019-Oct-13 07:55N 41°22' E 002°11'0 0.0
2019-Oct-13 07:26N 41°22' E 002°11'0 0.0
2019-Oct-13 06:56N 41°22' E 002°11'0 0.0
2019-Oct-13 06:25N 41°22' E 002°11'0 0.0
2019-Oct-13 05:56N 41°22' E 002°11'0 0.0
2019-Oct-13 05:26N 41°22' E 002°11'0 0.0
2019-Oct-13 04:56N 41°22' E 002°11'0 0.0
2019-Oct-13 04:26N 41°22' E 002°11'0 0.0
2019-Oct-13 03:56N 41°22' E 002°11'1 2.0
2019-Oct-13 03:31N 41°21' E 002°10'3 6.8
2019-Oct-13 03:01N 41°18' E 002°11'612.6
2019-Oct-13 02:30N 41°16' E 002°19'816.4
2019-Oct-13 02:00N 41°15' E 002°30'816.8
2019-Oct-13 01:30N 41°15' E 002°41'3 6.3
2019-Oct-13 01:00N 41°12' E 002°42'95289.0 100 / 71020.510.8 22.022.023.0
2019-Oct-13 00:59N 41°15' E 002°53'  
Track history (hours):
 
Tides and Currents Weather Stations Pressure Air Temp Water Temp Dewpoint Dewpoint Depression Visibility Wind Speed Wind Dir Waves Ship Positions

Brilliance Of The Seas

Operator: Royal Caribbean Cruises Ltd

Last reported at 2019-Oct-23 00:00 UTC. Time now 2019-Oct-23 00:28 UTC.
Position N 43°35' E 009°44'.

Type: Passenger vessel. MMSI: 311361000.

Date/timePositionNaut miles runAvg speedWind from/ knotsBaromVisibWave heightAir tempDewpointWater temp
2019-Oct-23 00:00N 43°35' E 009°44'3 6.7
2019-Oct-22 23:30N 43°35' E 009°39'4 7.4
2019-Oct-22 23:00N 43°34' E 009°34'5344.8
2019-Oct-22 23:00N 43°30' E 009°30'815.5 050 / 111020.510.8 21.021.022.0
2019-Oct-22 22:30N 43°37' E 009°34'4 7.8
2019-Oct-22 22:00N 43°41' E 009°36'3 6.3
2019-Oct-22 21:30N 43°42' E 009°31'4 7.4
2019-Oct-22 21:00N 43°41' E 009°26'3 6.9
2019-Oct-22 20:30N 43°43' E 009°23'4 7.4
2019-Oct-22 20:00N 43°46' E 009°22'5359.6
2019-Oct-22 20:00N 43°42' E 009°18'817.3 060 / 151020.510.8 21.0
2019-Oct-22 19:31N 43°50' E 009°21'4 7.3
2019-Oct-22 19:00N 43°53' E 009°18'4 7.6
2019-Oct-22 18:30N 43°56' E 009°15'4 7.5
2019-Oct-22 18:00N 43°59' E 009°12'5 9.8
2019-Oct-22 17:30N 44°04' E 009°12'713.5
2019-Oct-22 17:00N 44°11' E 009°14'11946.9
2019-Oct-22 17:00N 44°00' E 009°12'1836.1 020 / 81020.5 24.0
2019-Oct-22 16:30N 44°18' E 009°14'1 1.7
2019-Oct-22 16:00N 44°18' E 009°14'0 0.1
2019-Oct-22 15:23N 44°18' E 009°14'0 0.0
2019-Oct-22 14:56N 44°18' E 009°14'0 0.0
2019-Oct-22 14:29N 44°18' E 009°14'0 0.0
2019-Oct-22 13:50N 44°18' E 009°14'0 0.0
2019-Oct-22 13:29N 44°18' E 009°14'0 0.0
2019-Oct-22 12:47N 44°18' E 009°14'0 0.0
2019-Oct-22 12:29N 44°18' E 009°14'0 0.1
2019-Oct-22 11:56N 44°18' E 009°14'0 0.0
2019-Oct-22 11:29N 44°18' E 009°14'0 0.0
2019-Oct-22 10:56N 44°18' E 009°14'0 0.0
2019-Oct-22 10:23N 44°18' E 009°14'0 0.0
2019-Oct-22 09:53N 44°18' E 009°14'0 0.0
2019-Oct-22 09:08N 44°18' E 009°14'0 0.0
2019-Oct-22 08:53N 44°18' E 009°14'0 0.0
2019-Oct-22 08:23N 44°18' E 009°14'0 0.0
2019-Oct-22 07:59N 44°18' E 009°14'0 0.0
2019-Oct-22 07:30N 44°18' E 009°14'0 0.0
2019-Oct-22 07:00N 44°18' E 009°14'0 0.0
2019-Oct-22 06:30N 44°18' E 009°14'0 0.0
2019-Oct-22 06:00N 44°18' E 009°14'0 0.0
2019-Oct-22 05:29N 44°18' E 009°14'0 0.2
2019-Oct-22 05:00N 44°18' E 009°14'3 6.4
2019-Oct-22 04:30N 44°16' E 009°11'4 7.8
2019-Oct-22 04:00N 44°13' E 009°07'4 8.0
2019-Oct-22 03:30N 44°11' E 009°03'4 7.9
2019-Oct-22 03:00N 44°08' E 008°58'4 8.3
2019-Oct-22 02:30N 44°06' E 008°54'4 8.5
2019-Oct-22 02:00N 44°03' E 008°50'4 8.6
2019-Oct-22 01:30N 43°60' E 008°45'4 8.6
2019-Oct-22 01:00N 43°57' E 008°41'4 8.6
2019-Oct-22 00:30N 43°54' E 008°36'4 8.7
2019-Oct-22 00:00N 43°51' E 008°32'5 8.7
2019-Oct-21 23:29N 43°48' E 008°27'4 8.7
2019-Oct-21 23:00N 43°46' E 008°22'5324.7
2019-Oct-21 23:00N 43°42' E 008°18'3 6.0 070 / 81021.510.8 20.020.023.0
2019-Oct-21 22:30N 43°45' E 008°17'6 8.6
2019-Oct-21 21:49N 43°44' E 008°09'3 8.5
2019-Oct-21 21:30N 43°43' E 008°05'4 8.7
2019-Oct-21 21:00N 43°43' E 007°59'4236.5
2019-Oct-21 21:00N 43°42' E 007°54'1 1.4 360 / 91020.510.8 20.0
2019-Oct-21 20:30N 43°42' E 007°53'4 8.7
2019-Oct-21 20:00N 43°41' E 007°47'4 8.5
2019-Oct-21 19:30N 43°40' E 007°41'4 8.5
2019-Oct-21 19:00N 43°40' E 007°35'4248.9
2019-Oct-21 19:00N 43°36' E 007°36'611.2 360 / 71020.510.8 20.0
2019-Oct-21 18:30N 43°39' E 007°30'4 8.4
2019-Oct-21 18:00N 43°39' E 007°24'5340.4
2019-Oct-21 18:00N 43°36' E 007°18'4 8.6 360 / 71020.510.8 21.0
2019-Oct-21 17:30N 43°40' E 007°19'1 2.4
2019-Oct-21 17:00N 43°41' E 007°19'0 0.1
2019-Oct-21 16:30N 43°41' E 007°19'0 0.0
2019-Oct-21 16:00N 43°41' E 007°19'0 0.0
2019-Oct-21 15:27N 43°41' E 007°19'0 0.1
2019-Oct-21 15:00N 43°41' E 007°19'0 0.0
2019-Oct-21 14:30N 43°41' E 007°19'0 0.0
2019-Oct-21 14:00N 43°41' E 007°19'0 0.1
2019-Oct-21 13:30N 43°41' E 007°19'0 0.1
2019-Oct-21 13:00N 43°41' E 007°19'0 0.0
2019-Oct-21 12:27N 43°41' E 007°19'0 0.0
2019-Oct-21 12:00N 43°41' E 007°19'0 0.0
2019-Oct-21 11:24N 43°41' E 007°19'0 0.0
2019-Oct-21 11:00N 43°41' E 007°19'0 0.0
2019-Oct-21 10:30N 43°41' E 007°19'0 0.1
2019-Oct-21 09:57N 43°41' E 007°19'0 0.1
2019-Oct-21 09:27N 43°41' E 007°19'0 0.0
2019-Oct-21 09:00N 43°41' E 007°19'0 0.0
2019-Oct-21 08:30N 43°41' E 007°19'0 0.1
2019-Oct-21 08:00N 43°41' E 007°19'5343.1
2019-Oct-21 08:00N 43°36' E 007°18'511.0 010 / 21021.5 5.4 20.020.023.0
2019-Oct-21 07:30N 43°41' E 007°19'0 0.1
2019-Oct-21 06:57N 43°41' E 007°19'0 0.1
2019-Oct-21 06:30N 43°41' E 007°19'2 4.8
2019-Oct-21 06:01N 43°39' E 007°17'816.0
2019-Oct-21 05:30N 43°33' E 007°11'918.3
2019-Oct-21 05:00N 43°26' E 007°03'918.3
2019-Oct-21 04:30N 43°19' E 006°54'918.6
2019-Oct-21 04:00N 43°12' E 006°46'2112.9
2019-Oct-21 04:00N 43°12' E 006°48'1021.2 040 / 111017.5 5.4 20.020.022.0
2019-Oct-21 03:30N 43°05' E 006°37'6819.3
2019-Oct-21 00:00N 42°24' E 005°24'8421.0 160 / 111018.5 5.4 19.019.022.0
2019-Oct-20 20:00N 41°48' E 003°42'2323.1 180 / 251010.510.8 21.0
2019-Oct-20 19:00N 41°54' E 003°12'2619.9 190 / 211010.510.8 21.0
2019-Oct-20 17:40N 41°32' E 002°53'422.0
2019-Oct-20 17:29N 41°30' E 002°49'1021.8
2019-Oct-20 17:00N 41°25' E 002°36'1121.5
2019-Oct-20 16:30N 41°20' E 002°24'1020.2
2019-Oct-20 16:00N 41°16' E 002°11'4264.4
2019-Oct-20 16:00N 41°12' E 002°12'919.3 190 / 211010.510.8 21.0
2019-Oct-20 15:30N 41°21' E 002°10'0 0.9
2019-Oct-20 15:00N 41°22' E 002°11'0 0.0
2019-Oct-20 14:30N 41°22' E 002°11'0 0.0
2019-Oct-20 14:00N 41°22' E 002°11'0 0.0
2019-Oct-20 13:30N 41°22' E 002°11'0 0.0
2019-Oct-20 13:00N 41°22' E 002°11'0 0.0
2019-Oct-20 12:30N 41°22' E 002°11'0 0.0
2019-Oct-20 12:00N 41°22' E 002°11'0 0.0
2019-Oct-20 11:30N 41°22' E 002°11'0 0.0
2019-Oct-20 11:00N 41°22' E 002°11'0 0.0
2019-Oct-20 10:30N 41°22' E 002°11'0 0.0
2019-Oct-20 10:00N 41°22' E 002°11'0 0.0
2019-Oct-20 09:30N 41°22' E 002°11'0 0.0
2019-Oct-20 09:00N 41°22' E 002°11'0 0.0
2019-Oct-20 08:30N 41°22' E 002°11'0 0.0
2019-Oct-20 08:00N 41°22' E 002°11'0 0.0
2019-Oct-20 07:30N 41°22' E 002°11'0 0.0
2019-Oct-20 07:00N 41°22' E 002°11'0 0.0
2019-Oct-20 06:30N 41°22' E 002°11'0 0.0
2019-Oct-20 06:00N 41°22' E 002°11'0 0.0
2019-Oct-20 05:30N 41°22' E 002°11'0 0.0
2019-Oct-20 05:00N 41°22' E 002°11'0 0.0
2019-Oct-20 04:30N 41°22' E 002°11'0 0.0
2019-Oct-20 04:00N 41°22' E 002°11'1 2.2
2019-Oct-20 03:31N 41°21' E 002°10'3 6.9
2019-Oct-20 03:00N 41°17' E 002°11'815.2
2019-Oct-20 02:30N 41°18' E 002°21'816.0
2019-Oct-20 02:01N 41°17' E 002°32'816.4
2019-Oct-20 01:30N 41°16' E 002°43'916.7
2019-Oct-20 00:57N 41°16' E 002°55'13516.9
2019-Oct-19 17:00N 41°12' E 005°54'8817.8 170 / 291013.510.8 21.0
2019-Oct-19 12:03N 41°17' E 007°51'217.6
2019-Oct-19 11:56N 41°17' E 007°54'717.3
2019-Oct-19 11:30N 41°17' E 008°04'611.5
2019-Oct-19 11:00N 41°12' E 008°00'2533.0 180 / 221020.510.8 21.0
2019-Oct-19 10:13N 41°17' E 008°33'624.5
2019-Oct-19 10:00N 41°12' E 008°30'15018.8 170 / 131017.510.8 21.021.023.0
2019-Oct-19 02:00N 40°54' E 011°48'9416.0 170 / 101018.510.8 20.020.023.0
2019-Oct-18 20:06N 40°31' E 013°48'1 5.8
2019-Oct-18 20:00N 40°30' E 013°48'353.1 270 / 61020.510.8 21.0
2019-Oct-18 19:56N 40°30' E 013°52'2016.8
2019-Oct-18 18:45N 40°30' E 014°18'417.3
2019-Oct-18 18:30N 40°31' E 014°24'917.3
2019-Oct-18 18:00N 40°33' E 014°34'9616.7
2019-Oct-18 18:00N 40°30' E 014°24'14 1.1 220 / 21019.510.8 21.0
2019-Oct-18 05:02N 40°36' E 014°41'214.7
2019-Oct-18 04:55N 40°36' E 014°38'614.8
2019-Oct-18 04:30N 40°34' E 014°31'915.2
2019-Oct-18 03:57N 40°32' E 014°20'1114.9
2019-Oct-18 03:12N 40°31' E 014°05'315.2
2019-Oct-18 03:00N 40°33' E 014°02'815.2
2019-Oct-18 02:30N 40°37' E 013°54'815.4
2019-Oct-18 02:00N 40°41' E 013°46'6481.3
2019-Oct-18 02:00N 40°36' E 013°48'1425.4 060 / 41020.510.8 20.020.021.0
2019-Oct-18 01:27N 40°47' E 013°38'2114.1
2019-Oct-18 00:00N 40°54' E 013°12'6917.1 360 / 121021.510.8 19.019.021.0
2019-Oct-17 20:00N 41°36' E 012°00'2211.2 260 / 51020.510.8 20.0
2019-Oct-17 18:00N 41°54' E 011°42'108 4.7 240 / 91020.510.8 20.0
2019-Oct-16 18:51N 43°17' E 010°07'515.1
2019-Oct-16 18:30N 43°22' E 010°08'714.9
2019-Oct-16 18:00N 43°29' E 010°12'6408.9
2019-Oct-16 18:00N 43°24' E 010°06'1223.7 260 / 211019.510.8 19.0
2019-Oct-16 17:30N 43°32' E 010°17'1 2.4
2019-Oct-16 16:59N 43°33' E 010°18'0 0.0
2019-Oct-16 16:29N 43°33' E 010°18'0 0.0
2019-Oct-16 15:59N 43°33' E 010°18'0 0.0
2019-Oct-16 15:29N 43°33' E 010°18'0 0.0
2019-Oct-16 14:59N 43°33' E 010°18'0 0.0
2019-Oct-16 14:29N 43°33' E 010°18'0 0.0
2019-Oct-16 13:59N 43°33' E 010°18'0 0.0
2019-Oct-16 13:29N 43°33' E 010°18'0 0.0
2019-Oct-16 12:59N 43°33' E 010°18'0 0.0
2019-Oct-16 12:29N 43°33' E 010°18'0 0.0
2019-Oct-16 11:59N 43°33' E 010°18'0 0.0
2019-Oct-16 11:29N 43°33' E 010°18'0 0.0
2019-Oct-16 10:59N 43°33' E 010°18'0 0.0
2019-Oct-16 10:29N 43°33' E 010°18'0 0.0
2019-Oct-16 09:59N 43°33' E 010°18'0 0.0
2019-Oct-16 09:29N 43°33' E 010°18'0 0.0
2019-Oct-16 08:59N 43°33' E 010°18'0 0.0
2019-Oct-16 08:29N 43°33' E 010°18'0 0.0
2019-Oct-16 07:59N 43°33' E 010°18'0 0.0
2019-Oct-16 07:29N 43°33' E 010°18'0 0.0
2019-Oct-16 06:59N 43°33' E 010°18'0 0.0
2019-Oct-16 06:29N 43°33' E 010°18'0 0.0
2019-Oct-16 05:59N 43°33' E 010°18'0 0.0
2019-Oct-16 05:29N 43°33' E 010°18'0 0.0
2019-Oct-16 04:59N 43°33' E 010°18'0 0.0
2019-Oct-16 04:30N 43°33' E 010°18'1 1.8
2019-Oct-16 04:00N 43°33' E 010°17'4 7.5
2019-Oct-16 03:30N 43°30' E 010°14'5 9.8
2019-Oct-16 03:00N 43°29' E 010°07'510.2
2019-Oct-16 02:30N 43°30' E 010°00'510.1
2019-Oct-16 02:00N 43°32' E 009°54'510.3
2019-Oct-16 01:30N 43°33' E 009°47'510.4
2019-Oct-16 01:00N 43°34' E 009°40'510.5
2019-Oct-16 00:30N 43°35' E 009°33'510.4
2019-Oct-16 00:00N 43°37' E 009°26'510.5
2019-Oct-15 23:30N 43°38' E 009°19'510.5
2019-Oct-15 23:00N 43°40' E 009°12'4246.5
2019-Oct-15 23:00N 43°36' E 009°12'714.8 230 / 301013.5 5.4 20.020.020.0
2019-Oct-15 22:30N 43°41' E 009°05'510.6
2019-Oct-15 22:00N 43°42' E 008°58'510.3
2019-Oct-15 21:30N 43°45' E 008°52'4 8.7
2019-Oct-15 21:00N 43°49' E 008°53'11679.6
2019-Oct-15 21:00N 44°00' E 008°54'613.2 230 / 451019.510.8 20.0
2019-Oct-15 20:30N 43°54' E 008°54'4 8.4
2019-Oct-15 20:00N 43°58' E 008°54'4 8.0
2019-Oct-15 19:30N 44°02' E 008°55'4 7.7
2019-Oct-15 19:00N 44°06' E 008°56'7512.8
2019-Oct-15 19:00N 44°12' E 008°54'3 6.6 210 / 251010.510.8 20.0
2019-Oct-15 18:30N 44°09' E 008°56'4 7.7
2019-Oct-15 18:00N 44°13' E 008°57'4 7.5
2019-Oct-15 17:30N 44°17' E 008°57'4 7.9
2019-Oct-15 17:00N 44°21' E 008°57'4 7.4
2019-Oct-15 16:30N 44°24' E 008°55'1 1.1
2019-Oct-15 15:58N 44°25' E 008°55'0 0.0
2019-Oct-15 15:28N 44°25' E 008°55'0 0.0
2019-Oct-15 14:58N 44°25' E 008°55'0 0.0
2019-Oct-15 14:28N 44°25' E 008°55'0 0.0
2019-Oct-15 13:58N 44°25' E 008°55'0 0.0
2019-Oct-15 13:28N 44°25' E 008°55'0 0.0
2019-Oct-15 12:58N 44°25' E 008°55'0 0.0
2019-Oct-15 12:28N 44°25' E 008°55'0 0.0
2019-Oct-15 11:58N 44°25' E 008°55'0 0.0
2019-Oct-15 11:28N 44°25' E 008°55'0 0.0
2019-Oct-15 10:58N 44°25' E 008°55'0 0.0
2019-Oct-15 10:28N 44°25' E 008°55'0 0.0
2019-Oct-15 09:58N 44°25' E 008°55'0 0.0
2019-Oct-15 09:28N 44°25' E 008°55'0 0.0
2019-Oct-15 08:58N 44°25' E 008°55'0 0.0
2019-Oct-15 08:28N 44°25' E 008°55'0 0.0
2019-Oct-15 07:58N 44°25' E 008°55'0 0.0
2019-Oct-15 07:28N 44°25' E 008°55'0 0.0
2019-Oct-15 06:58N 44°25' E 008°55'0 0.0
2019-Oct-15 06:28N 44°25' E 008°55'0 0.0
2019-Oct-15 05:59N 44°25' E 008°55'1 1.2
2019-Oct-15 05:31N 44°24' E 008°55'2 3.1
2019-Oct-15 05:00N 44°23' E 008°57'3 5.8
2019-Oct-15 04:31N 44°21' E 008°59'4 7.1
2019-Oct-15 04:01N 44°17' E 008°57'4 7.7
2019-Oct-15 03:30N 44°14' E 008°54'4 8.1
2019-Oct-15 03:00N 44°11' E 008°51'4 8.4
2019-Oct-15 02:30N 44°08' E 008°47'4 8.2
2019-Oct-15 02:00N 44°05' E 008°43'2114.8
2019-Oct-15 02:00N 44°06' E 008°42'510.2 110 / 251015.5 5.4 21.021.020.0
2019-Oct-15 01:30N 44°01' E 008°39'4 8.1
2019-Oct-15 01:00N 43°58' E 008°36'4 8.3
2019-Oct-15 00:30N 43°55' E 008°32'4 8.4
2019-Oct-15 00:00N 43°52' E 008°29'4 8.4
2019-Oct-14 23:30N 43°48' E 008°25'815.9
2019-Oct-14 23:00N 43°42' E 008°18'349.5 040 / 131017.5 5.4 21.021.020.0
2019-Oct-14 22:55N 43°45' E 008°20'8 8.3
2019-Oct-14 21:57N 43°44' E 008°09'4 8.5
2019-Oct-14 21:30N 43°43' E 008°04'4 8.6
2019-Oct-14 21:00N 43°42' E 007°58'4 8.6
2019-Oct-14 20:30N 43°42' E 007°52'4 8.5
2019-Oct-14 20:01N 43°41' E 007°46'4 8.5
2019-Oct-14 19:30N 43°40' E 007°40'4 8.5
2019-Oct-14 19:00N 43°40' E 007°35'5439.3
2019-Oct-14 19:00N 43°36' E 007°30'3 6.7 060 / 241018.510.8 21.0
2019-Oct-14 18:31N 43°39' E 007°29'4 8.1
2019-Oct-14 18:00N 43°39' E 007°23'3218.7
2019-Oct-14 18:00N 43°36' E 007°24'611.6 070 / 281018.510.8 21.0
2019-Oct-14 17:31N 43°40' E 007°18'2 3.5
2019-Oct-14 17:00N 43°41' E 007°19'0 0.3
2019-Oct-14 16:26N 43°41' E 007°19'0 0.0
2019-Oct-14 15:59N 43°41' E 007°19'0 0.0
2019-Oct-14 15:29N 43°41' E 007°19'0 0.0
2019-Oct-14 14:59N 43°41' E 007°19'0 0.0
2019-Oct-14 14:29N 43°41' E 007°19'0 0.0
2019-Oct-14 13:59N 43°41' E 007°19'0 0.0
2019-Oct-14 13:29N 43°41' E 007°19'0 0.0
2019-Oct-14 12:59N 43°41' E 007°19'0 0.0
2019-Oct-14 12:26N 43°41' E 007°19'0 0.0
2019-Oct-14 11:59N 43°41' E 007°19'0 0.0
2019-Oct-14 11:29N 43°41' E 007°19'0 0.0
2019-Oct-14 10:59N 43°41' E 007°19'0 0.0
2019-Oct-14 10:26N 43°41' E 007°19'0 0.0
2019-Oct-14 09:59N 43°41' E 007°19'0 0.0
2019-Oct-14 09:29N 43°41' E 007°19'0 0.0
2019-Oct-14 08:59N 43°41' E 007°19'0 0.0
2019-Oct-14 08:26N 43°41' E 007°19'0 0.0
2019-Oct-14 07:56N 43°41' E 007°19'0 0.0
2019-Oct-14 07:26N 43°41' E 007°19'0 0.0
2019-Oct-14 06:53N 43°41' E 007°19'0 0.1
2019-Oct-14 06:30N 43°41' E 007°19'3 5.3
2019-Oct-14 06:00N 43°39' E 007°17'815.7
2019-Oct-14 05:31N 43°33' E 007°11'918.1
2019-Oct-14 05:01N 43°26' E 007°03'918.4
2019-Oct-14 04:30N 43°19' E 006°54'918.7
2019-Oct-14 04:01N 43°12' E 006°46'3919.3
2019-Oct-14 02:00N 42°42' E 006°12'3316.6 060 / 301020.5 5.4 19.019.023.0
2019-Oct-14 00:00N 42°30' E 005°30'2121.4 070 / 261020.5 5.4 21.021.023.0
2019-Oct-13 23:00N 42°18' E 005°06'4421.9 070 / 201020.5 5.4 21.021.023.0
2019-Oct-13 21:00N 42°00' E 004°12'5919.6 100 / 171020.510.8 21.0
2019-Oct-13 18:00N 41°36' E 003°00'1119.6 070 / 101019.510.8 21.0
2019-Oct-13 17:25N 41°29' E 002°48'921.8
2019-Oct-13 17:00N 41°25' E 002°37'2110.8
2019-Oct-13 17:00N 41°24' E 002°36'1019.7 090 / 161018.510.8 22.0
2019-Oct-13 16:31N 41°20' E 002°25'1019.4
2019-Oct-13 16:01N 41°16' E 002°13'4223.0
2019-Oct-13 16:00N 41°12' E 002°12'917.8 100 / 141019.5 22.0
2019-Oct-13 15:30N 41°21' E 002°10'1 2.3
2019-Oct-13 15:00N 41°22' E 002°11'0 0.1
2019-Oct-13 14:26N 41°22' E 002°11'0 0.0
2019-Oct-13 13:56N 41°22' E 002°11'0 0.0
2019-Oct-13 13:26N 41°22' E 002°11'0 0.0
2019-Oct-13 12:56N 41°22' E 002°11'0 0.0
2019-Oct-13 12:26N 41°22' E 002°11'0 0.0
2019-Oct-13 11:56N 41°22' E 002°11'0 0.0
2019-Oct-13 11:26N 41°22' E 002°11'0 0.0
2019-Oct-13 10:56N 41°22' E 002°11'0 0.0
2019-Oct-13 10:26N 41°22' E 002°11'0 0.0
2019-Oct-13 09:55N 41°22' E 002°11'0 0.0
2019-Oct-13 09:26N 41°22' E 002°11'0 0.0
2019-Oct-13 08:56N 41°22' E 002°11'0 0.0
2019-Oct-13 08:26N 41°22' E 002°11'0 0.0
2019-Oct-13 07:55N 41°22' E 002°11'0 0.0
2019-Oct-13 07:26N 41°22' E 002°11'0 0.0
2019-Oct-13 06:56N 41°22' E 002°11'0 0.0
2019-Oct-13 06:25N 41°22' E 002°11'0 0.0
2019-Oct-13 05:56N 41°22' E 002°11'0 0.0
2019-Oct-13 05:26N 41°22' E 002°11'0 0.0
2019-Oct-13 04:56N 41°22' E 002°11'0 0.0
2019-Oct-13 04:26N 41°22' E 002°11'0 0.0
2019-Oct-13 03:56N 41°22' E 002°11'1 2.0
2019-Oct-13 03:31N 41°21' E 002°10'3 6.8
2019-Oct-13 03:01N 41°18' E 002°11'612.6
2019-Oct-13 02:30N 41°16' E 002°19'816.4
2019-Oct-13 02:00N 41°15' E 002°30'816.8
2019-Oct-13 01:30N 41°15' E 002°41'3 6.3
2019-Oct-13 01:00N 41°12' E 002°42'95289.0 100 / 71020.510.8 22.022.023.0
2019-Oct-13 00:59N 41°15' E 002°53'  

Dump ship's entire track history